createdAt,value
2022-10-22T00:00:36.206Z,1.45
2022-10-22T00:04:37.838Z,1.55
2022-10-22T00:08:39.539Z,1.58
2022-10-22T00:12:41.168Z,1.60
2022-10-22T00:16:42.954Z,1.45
2022-10-22T00:20:44.571Z,1.70
2022-10-22T00:24:46.169Z,1.40
2022-10-22T00:28:47.943Z,1.35
2022-10-22T00:32:49.558Z,1.35
2022-10-22T00:36:52.563Z,1.33
2022-10-22T00:40:54.525Z,1.60
2022-10-22T00:45:16.165Z,1.35
2022-10-22T00:49:17.841Z,1.60
2022-10-22T00:53:23.538Z,1.33
2022-10-22T00:57:25.225Z,1.55
2022-10-22T01:01:29.689Z,1.80
2022-10-22T01:05:37.958Z,1.45
2022-10-22T01:10:08.709Z,1.48
2022-10-22T01:14:13.370Z,1.73
2022-10-22T01:18:24.319Z,1.50
2022-10-22T01:22:38.860Z,1.40
2022-10-22T01:27:15.573Z,1.55
2022-10-22T01:31:19.264Z,1.75
2022-10-22T01:35:28.705Z,1.48
2022-10-22T01:39:31.319Z,1.60
2022-10-22T01:43:32.944Z,1.33
2022-10-22T01:47:57.410Z,1.58
2022-10-22T01:52:10.887Z,1.25
2022-10-22T01:56:31.224Z,1.10
2022-10-22T02:00:34.046Z,1.52
2022-10-22T02:05:00.558Z,1.25
2022-10-22T02:09:03.766Z,1.20
2022-10-22T02:13:09.810Z,1.40
2022-10-22T02:17:18.526Z,1.20
2022-10-22T02:21:20.238Z,1.08
2022-10-22T02:25:23.649Z,1.40
2022-10-22T02:29:30.170Z,1.30
2022-10-22T02:33:36.174Z,1.35
2022-10-22T02:41:40.482Z,1.83
2022-10-22T02:45:42.069Z,1.60
2022-10-22T02:49:43.718Z,1.23
2022-10-22T02:53:45.393Z,1.60
2022-10-22T02:57:46.950Z,1.50
2022-10-22T03:01:48.534Z,1.52
2022-10-22T03:05:53.339Z,1.73
2022-10-22T03:09:54.941Z,1.33
2022-10-22T03:13:56.512Z,1.23
2022-10-22T03:17:58.107Z,1.23
2022-10-22T03:22:09.989Z,1.23
2022-10-22T03:26:14.521Z,1.10
2022-10-22T03:30:16.250Z,1.48
2022-10-22T03:34:17.834Z,1.40
2022-10-22T03:38:19.527Z,1.40
2022-10-22T03:42:21.750Z,1.35
2022-10-22T03:46:23.452Z,1.50
2022-10-22T03:50:25.104Z,1.20
2022-10-22T03:54:26.747Z,1.45
2022-10-22T03:58:28.459Z,1.52
2022-10-22T04:02:30.025Z,1.40
2022-10-22T04:06:31.708Z,1.58
2022-10-22T04:10:33.469Z,1.60
2022-10-22T04:14:35.256Z,1.33
2022-10-22T04:18:37.230Z,1.30
2022-10-22T04:22:39.018Z,1.85
2022-10-22T04:26:41.109Z,1.48
2022-10-22T04:30:42.885Z,1.30
2022-10-22T04:34:44.498Z,1.30
2022-10-22T04:38:47.567Z,1.38
2022-10-22T04:42:49.178Z,1.60
2022-10-22T04:46:50.829Z,1.13
2022-10-22T04:50:52.530Z,1.27
2022-10-22T04:54:54.105Z,1.40
2022-10-22T04:59:01.196Z,1.70
2022-10-22T05:03:02.824Z,1.77
2022-10-22T05:07:04.437Z,1.40
2022-10-22T05:11:17.895Z,1.60
2022-10-22T05:15:19.535Z,1.38
2022-10-22T05:19:24.681Z,1.50
2022-10-22T05:23:26.471Z,1.57
2022-10-22T05:27:28.112Z,1.77
2022-10-22T05:31:29.897Z,1.60
2022-10-22T05:35:31.465Z,1.52
2022-10-22T05:39:36.584Z,1.58
2022-10-22T05:43:38.966Z,1.60
2022-10-22T05:47:40.559Z,1.35
2022-10-22T05:51:44.673Z,1.65
2022-10-22T05:55:46.583Z,1.40
2022-10-22T05:59:48.438Z,1.40
2022-10-22T06:03:53.174Z,1.30
2022-10-22T06:07:57.269Z,1.80
2022-10-22T06:11:59.351Z,1.50
2022-10-22T06:16:01.017Z,1.50
2022-10-22T06:20:02.664Z,1.40
2022-10-22T06:24:05.582Z,1.35
2022-10-22T06:28:08.177Z,1.50
2022-10-22T06:32:09.746Z,1.50
2022-10-22T06:36:14.719Z,1.30
2022-10-22T06:40:18.630Z,1.20
2022-10-22T06:44:21.056Z,1.27
2022-10-22T06:48:22.710Z,1.33
2022-10-22T06:52:24.498Z,1.35
2022-10-22T06:56:28.687Z,1.17
2022-10-22T07:00:30.402Z,1.45
2022-10-22T07:04:32.430Z,1.52
2022-10-22T07:08:34.464Z,1.50
2022-10-22T07:12:36.069Z,1.50
2022-10-22T07:16:37.948Z,1.58
2022-10-22T07:20:39.905Z,1.30
2022-10-22T07:24:41.482Z,1.58
2022-10-22T07:28:43.596Z,1.85
2022-10-22T07:32:45.191Z,1.20
2022-10-22T07:36:46.766Z,1.23
2022-10-22T07:40:48.368Z,1.70
2022-10-22T07:44:49.962Z,1.55
2022-10-22T07:48:51.764Z,1.35
2022-10-22T07:52:54.899Z,1.70
2022-10-22T07:56:59.051Z,1.48
2022-10-22T08:01:02.129Z,1.65
2022-10-22T08:05:04.119Z,1.35
2022-10-22T08:09:05.946Z,1.35
2022-10-22T08:13:08.072Z,1.80
2022-10-22T08:17:09.683Z,1.83
2022-10-22T08:21:12.916Z,1.73
2022-10-22T08:25:15.470Z,1.60
2022-10-22T08:29:17.133Z,1.50
2022-10-22T08:33:18.721Z,1.70
2022-10-22T08:37:20.357Z,1.60
2022-10-22T08:41:24.370Z,2.30
2022-10-22T08:45:30.978Z,1.85
2022-10-22T08:49:39.792Z,1.70
2022-10-22T08:54:05.625Z,1.88
2022-10-22T08:58:07.279Z,1.55
2022-10-22T09:02:40.151Z,2.08
2022-10-22T09:06:44.301Z,1.80
2022-10-22T09:10:53.021Z,2.00
2022-10-22T09:14:54.810Z,2.65
2022-10-22T09:19:03.006Z,2.05
2022-10-22T09:23:25.617Z,1.95
2022-10-22T09:27:31.854Z,1.85
2022-10-22T09:31:34.190Z,2.00
2022-10-22T09:35:45.919Z,1.90
2022-10-22T09:39:51.590Z,2.00
2022-10-22T09:43:53.362Z,2.13
2022-10-22T09:48:34.500Z,2.28
2022-10-22T09:52:36.205Z,2.72
2022-10-22T09:56:43.266Z,2.05
2022-10-22T10:00:47.117Z,2.13
2022-10-22T10:04:54.972Z,1.67
2022-10-22T10:08:57.195Z,2.22
2022-10-22T10:13:24.665Z,2.05
2022-10-22T10:17:45.009Z,2.08
2022-10-22T10:22:05.557Z,2.22
2022-10-22T10:26:33.406Z,1.73
2022-10-22T10:30:46.781Z,2.25
2022-10-22T10:34:54.574Z,2.10
2022-10-22T10:39:11.166Z,1.80
2022-10-22T10:43:28.678Z,1.92
2022-10-22T10:47:56.353Z,1.70
2022-10-22T10:52:11.571Z,1.92
2022-10-22T10:56:27.950Z,1.90
2022-10-22T11:04:45.720Z,1.83
2022-10-22T11:09:05.436Z,2.08
2022-10-22T11:13:31.891Z,2.40
2022-10-22T11:17:40.305Z,1.98
2022-10-22T11:22:08.173Z,2.05
2022-10-22T11:26:19.177Z,2.35
2022-10-22T11:30:23.382Z,1.80
2022-10-22T11:34:41.647Z,1.80
2022-10-22T11:38:43.953Z,1.50
2022-10-22T11:42:53.631Z,2.03
2022-10-22T11:47:18.206Z,1.83
2022-10-22T11:51:40.875Z,1.55
2022-10-22T11:55:51.522Z,1.60
2022-10-22T12:00:01.305Z,1.88
2022-10-22T12:04:05.685Z,1.90
2022-10-22T12:08:14.792Z,1.92
2022-10-22T12:12:20.869Z,2.08
2022-10-22T12:16:43.878Z,1.33
2022-10-22T12:20:51.000Z,1.77
2022-10-22T12:24:54.582Z,1.80
2022-10-22T12:29:00.148Z,2.00
2022-10-22T12:33:04.644Z,1.60
2022-10-22T12:37:06.282Z,1.80
2022-10-22T12:41:09.987Z,1.80
2022-10-22T12:45:11.563Z,1.70
2022-10-22T12:49:18.996Z,1.92
2022-10-22T12:53:32.441Z,1.88
2022-10-22T12:57:34.077Z,2.15
2022-10-22T13:01:39.040Z,1.70
2022-10-22T13:05:40.922Z,1.50
2022-10-22T13:09:56.812Z,1.63
2022-10-22T13:14:06.141Z,1.30
2022-10-22T13:18:20.933Z,2.10
2022-10-22T13:22:33.534Z,2.08
2022-10-22T13:26:37.389Z,2.22
2022-10-22T13:30:39.681Z,1.80
2022-10-22T13:34:41.285Z,2.22
2022-10-22T13:38:43.701Z,1.58
2022-10-22T13:42:45.309Z,1.80
2022-10-22T13:46:48.395Z,1.60
2022-10-22T13:50:51.159Z,1.60
2022-10-22T13:54:52.714Z,1.70
2022-10-22T13:58:54.379Z,1.73
2022-10-22T14:02:58.670Z,1.65
2022-10-22T14:07:03.719Z,1.60
2022-10-22T14:11:05.864Z,1.50
2022-10-22T14:15:08.590Z,1.58
2022-10-22T14:19:16.778Z,1.80
2022-10-22T14:23:24.137Z,1.83
2022-10-22T14:27:25.767Z,1.48
2022-10-22T14:31:28.006Z,1.42
2022-10-22T14:35:29.631Z,1.70
2022-10-22T14:39:31.189Z,1.60
2022-10-22T14:43:32.828Z,1.60
2022-10-22T14:47:34.484Z,1.92
2022-10-22T14:51:36.079Z,1.50
2022-10-22T14:55:37.669Z,1.70
2022-10-22T14:59:39.550Z,1.70
2022-10-22T15:03:41.950Z,1.92
2022-10-22T15:07:45.461Z,1.33
2022-10-22T15:11:47.029Z,1.98
2022-10-22T15:15:48.886Z,1.92
2022-10-22T15:19:50.569Z,1.60
2022-10-22T15:23:52.179Z,1.75
2022-10-22T15:27:56.535Z,1.92
2022-10-22T15:32:03.739Z,1.85
2022-10-22T15:36:16.320Z,2.20
2022-10-22T15:40:17.956Z,1.63
2022-10-22T15:44:24.962Z,2.00
2022-10-22T15:48:26.537Z,1.50
2022-10-22T15:52:28.461Z,1.55
2022-10-22T15:56:31.214Z,1.48
2022-10-22T16:00:33.026Z,1.27
2022-10-22T16:04:34.651Z,1.60
2022-10-22T16:08:36.722Z,1.63
2022-10-22T16:12:40.803Z,1.40
2022-10-22T16:16:45.854Z,1.52
2022-10-22T16:20:47.819Z,1.55
2022-10-22T16:24:49.410Z,1.65
2022-10-22T16:28:51.001Z,1.17
2022-10-22T16:32:52.953Z,1.08
2022-10-22T16:36:56.443Z,1.27
2022-10-22T16:41:14.804Z,1.88
2022-10-22T16:45:17.016Z,1.40
2022-10-22T16:49:18.651Z,1.27
2022-10-22T16:53:20.221Z,1.42
2022-10-22T16:57:21.842Z,1.70
2022-10-22T17:01:26.430Z,1.15
2022-10-22T17:05:28.152Z,1.60
2022-10-22T17:09:29.781Z,1.27
2022-10-22T17:13:31.412Z,1.23
2022-10-22T17:17:33.732Z,1.42
2022-10-22T17:21:35.524Z,1.33
2022-10-22T17:25:42.797Z,1.33
2022-10-22T17:29:44.380Z,1.20
2022-10-22T17:33:47.387Z,1.20
2022-10-22T17:37:49.047Z,1.42
2022-10-22T17:41:50.654Z,1.48
2022-10-22T17:45:52.262Z,1.23
2022-10-22T17:49:53.895Z,1.23
2022-10-22T17:53:55.816Z,1.33
2022-10-22T17:57:57.615Z,1.50
2022-10-22T18:02:05.121Z,1.35
2022-10-22T18:06:07.606Z,1.20
2022-10-22T18:10:09.731Z,1.60
2022-10-22T18:14:14.039Z,1.42
2022-10-22T18:18:15.796Z,1.50
2022-10-22T18:22:17.434Z,1.17
2022-10-22T18:26:21.576Z,1.15
2022-10-22T18:30:26.025Z,1.27
2022-10-22T18:34:29.219Z,1.20
2022-10-22T18:38:30.819Z,1.00
2022-10-22T18:42:36.578Z,1.23
2022-10-22T18:46:40.094Z,1.27
2022-10-22T18:50:41.945Z,1.20
2022-10-22T18:54:43.547Z,1.20
2022-10-22T18:58:47.033Z,1.20
2022-10-22T19:02:48.698Z,1.30
2022-10-22T19:06:50.662Z,1.17
2022-10-22T19:10:52.240Z,1.45
2022-10-22T19:14:55.041Z,1.15
2022-10-22T19:19:02.037Z,1.00
2022-10-22T19:23:04.573Z,0.98
2022-10-22T19:27:06.308Z,1.30
2022-10-22T19:31:09.958Z,1.15
2022-10-22T19:35:11.577Z,1.38
2022-10-22T19:39:16.968Z,1.17
2022-10-22T19:43:19.126Z,1.08
2022-10-22T19:47:22.822Z,1.30
2022-10-22T19:51:27.719Z,1.02
2022-10-22T19:55:29.475Z,1.60
2022-10-22T19:59:32.153Z,1.10
2022-10-22T20:03:36.221Z,1.08
2022-10-22T20:07:37.852Z,0.80
2022-10-22T20:11:39.608Z,0.85
2022-10-22T20:15:41.690Z,0.93
2022-10-22T20:19:43.781Z,1.23
2022-10-22T20:23:46.631Z,1.30
2022-10-22T20:27:48.379Z,1.00
2022-10-22T20:31:50.000Z,1.00
2022-10-22T20:36:02.223Z,1.25
2022-10-22T20:40:04.157Z,1.50
2022-10-22T20:44:15.724Z,1.10
2022-10-22T20:48:17.922Z,1.25
2022-10-22T20:52:19.518Z,1.10
2022-10-22T20:56:21.366Z,1.30
2022-10-22T21:00:23.151Z,1.35
2022-10-22T21:04:26.006Z,0.93
2022-10-22T21:08:27.611Z,1.02
2022-10-22T21:12:29.436Z,1.17
2022-10-22T21:16:31.149Z,0.90
2022-10-22T21:20:32.747Z,1.08
2022-10-22T21:24:34.348Z,1.30
2022-10-22T21:28:37.526Z,1.30
2022-10-22T21:32:39.280Z,1.00
2022-10-22T21:36:41.086Z,1.25
2022-10-22T21:40:42.781Z,1.30
2022-10-22T21:44:44.381Z,1.15
2022-10-22T21:48:46.460Z,1.10
2022-10-22T21:52:48.136Z,1.23
2022-10-22T21:56:50.064Z,1.00
2022-10-22T22:00:57.583Z,0.80
2022-10-22T22:04:59.240Z,1.13
2022-10-22T22:09:02.040Z,1.00
2022-10-22T22:13:03.755Z,1.13
2022-10-22T22:17:05.444Z,1.05
2022-10-22T22:21:18.545Z,0.85
2022-10-22T22:25:20.291Z,1.30
2022-10-22T22:29:21.882Z,1.00
2022-10-22T22:33:24.007Z,1.00
2022-10-22T22:37:27.261Z,1.25
2022-10-22T22:41:28.926Z,1.30
2022-10-22T22:45:30.617Z,1.10
2022-10-22T22:49:32.219Z,1.13
2022-10-22T22:53:34.937Z,1.10
2022-10-22T22:57:36.673Z,1.38
2022-10-22T23:01:39.240Z,1.17
2022-10-22T23:05:40.871Z,0.95
2022-10-22T23:09:42.484Z,0.90
2022-10-22T23:13:44.227Z,1.55
2022-10-22T23:17:45.829Z,1.20
2022-10-22T23:21:50.740Z,1.10
2022-10-22T23:25:55.184Z,1.00
2022-10-22T23:29:56.826Z,0.90
2022-10-22T23:33:59.003Z,1.25
2022-10-22T23:38:00.606Z,1.25
2022-10-22T23:42:02.260Z,0.95
2022-10-22T23:46:05.801Z,1.00
2022-10-22T23:50:08.218Z,1.15
2022-10-22T23:54:15.456Z,1.20
2022-10-22T23:58:17.325Z,0.75
